Terminal Aerodrome Forecast
Issued by NWS

Home | Current Version | Previous Version | Text Only | Print | Product List | Glossary On
Versions: 1 2 3 4 5 6 7 8 9 10 11 12 13 14 15 16 17 18 19 20 21 22 23 24 25 26 27 28 29 30 31 32 33
000
FTPA31 PHFO 281500 AAA
TAFOGG
TAF AMD
PHOG 281508Z 2815/2912 04010KT P6SM FEW030 SCT050
     FM282000 06016G26KT P6SM FEW030 SCT050
     FM290500 06011G20KT P6SM FEW030 SCT050
     FM290900 06009KT P6SM FEW030 SCT050
      AMD LTD TO WX VIS AND WIND TIL 281600=

USA.gov is the U.S. government's official web portal to all federal, state and local government web resources and services.